Time;durP1;ratioP1;P1;durP2;ratioP2;P2;SDS_P1;SDS_P2;PMS_P1;PMS_P2;Temp;Humidity;BMP_temperature;BMP_pressure;BME280_temperature;BME280_humidity;BME280_pressure;Samples;Min_cycle;Max_cycle;Signal;HPM_P1;HPM_P2
2023/01/02 00:00:54;;;;;;;12.17;1.77;;;8.30;99.90;;;;;;5030061;28;20559;-58
2023/01/02 00:03:20;;;;;;;9.90;1.50;;;8.30;99.90;;;;;;5030586;28;20275;-58
2023/01/02 00:05:46;;;;;;;7.23;1.53;;;8.20;99.90;;;;;;5029892;28;20923;-58
2023/01/02 00:08:11;;;;;;;16.93;2.50;;;8.20;99.90;;;;;;5029000;28;20174;-58
2023/01/02 00:10:37;;;;;;;8.70;1.63;;;8.20;99.90;;;;;;5030213;28;20170;-58
2023/01/02 00:13:02;;;;;;;10.40;1.73;;;8.10;99.90;;;;;;5013996;28;20649;-58
2023/01/02 00:15:28;;;;;;;10.93;1.63;;;8.30;99.90;;;;;;5019825;28;20292;-58
2023/01/02 00:17:53;;;;;;;5.43;1.47;;;8.20;99.90;;;;;;5029992;28;20637;-58
2023/01/02 00:20:19;;;;;;;12.23;2.13;;;8.40;99.90;;;;;;5029919;28;20660;-58
2023/01/02 00:22:45;;;;;;;7.87;1.53;;;8.30;99.90;;;;;;5022193;28;20171;-58
2023/01/02 00:25:11;;;;;;;11.73;1.90;;;8.50;99.90;;;;;;5023482;28;20178;-58
2023/01/02 00:27:36;;;;;;;12.77;1.70;;;8.30;99.90;;;;;;5029468;28;20205;-58
2023/01/02 00:30:03;;;;;;;11.83;1.63;;;8.30;99.90;;;;;;5031336;28;20703;-58
2023/01/02 00:32:29;;;;;;;6.80;1.57;;;8.30;99.90;;;;;;5033221;28;20260;-58
2023/01/02 00:34:54;;;;;;;12.13;1.83;;;8.30;99.90;;;;;;5033498;28;20305;-58
2023/01/02 00:37:20;;;;;;;10.03;1.90;;;;;;;;;;5033812;28;20695;-58
2023/01/02 00:39:46;;;;;;;12.43;1.90;;;8.30;99.90;;;;;;5032636;28;20182;-58
2023/01/02 00:42:12;;;;;;;11.17;1.67;;;;;;;;;;5033625;28;20181;-58
2023/01/02 00:44:37;;;;;;;9.83;1.80;;;8.30;99.90;;;;;;5033518;28;20264;-58
2023/01/02 00:47:03;;;;;;;10.27;1.60;;;8.50;99.90;;;;;;5033399;28;20714;-58
2023/01/02 00:49:29;;;;;;;11.13;1.60;;;8.40;99.90;;;;;;5033742;28;20240;-58
2023/01/02 00:51:54;;;;;;;13.63;2.47;;;8.30;99.90;;;;;;5032823;28;20236;-58
2023/01/02 00:54:20;;;;;;;10.07;2.03;;;8.20;99.90;;;;;;5033598;28;20174;-56
2023/01/02 00:56:45;;;;;;;11.30;2.00;;;8.30;99.90;;;;;;5033551;28;20283;-56
2023/01/02 00:59:11;;;;;;;14.53;2.40;;;8.20;99.90;;;;;;5033508;28;20182;-58
2023/01/02 01:01:37;;;;;;;12.47;1.80;;;8.20;99.90;;;;;;5033348;28;20173;-56
2023/01/02 01:04:03;;;;;;;9.30;1.50;;;8.20;99.90;;;;;;5032974;28;20229;-56
2023/01/02 01:06:28;;;;;;;19.27;2.00;;;8.00;99.90;;;;;;5032099;28;20225;-58
2023/01/02 01:08:54;;;;;;;11.60;2.00;;;8.30;99.90;;;;;;5033321;28;20197;-58
2023/01/02 01:11:19;;;;;;;11.77;1.87;;;10.70;99.90;;;;;;5025839;28;20272;-56
2023/01/02 01:13:46;;;;;;;10.33;1.87;;;8.20;99.90;;;;;;5033219;28;20621;-56
2023/01/02 01:16:15;;;;;;;12.77;2.10;;;8.20;99.90;;;;;;5033244;28;20174;-56
2023/01/02 01:18:41;;;;;;;10.47;2.20;;;;;;;;;;5033355;28;20261;-56
2023/01/02 01:21:12;;;;;;;16.93;2.23;;;8.20;99.90;;;;;;5032891;28;20166;-56
2023/01/02 01:23:38;;;;;;;9.30;1.80;;;8.20;99.90;;;;;;5033044;28;20223;-56
2023/01/02 01:26:09;;;;;;;11.00;1.90;;;8.30;99.90;;;;;;5032786;28;20218;-56
2023/01/02 01:28:36;;;;;;;8.57;1.87;;;8.20;99.90;;;;;;5032957;28;20177;-56
2023/01/02 01:31:08;;;;;;;15.73;2.47;;;8.30;99.90;;;;;;5033089;28;20226;-57
2023/01/02 01:33:34;;;;;;;13.00;1.87;;;;;;;;;;5032388;28;20213;-57
2023/01/02 01:36:12;;;;;;;14.83;1.93;;;8.30;99.90;;;;;;5032528;28;20236;-57
2023/01/02 01:38:38;;;;;;;12.23;2.37;;;8.20;99.90;;;;;;5032410;28;20189;-58
2023/01/02 01:41:04;;;;;;;10.57;1.80;;;8.10;99.90;;;;;;5032323;28;20174;-57
2023/01/02 01:43:49;;;;;;;13.73;2.00;;;8.30;99.90;;;;;;5032726;28;20170;-57
2023/01/02 01:46:32;;;;;;;8.80;1.60;;;8.30;99.90;;;;;;5022818;28;20252;-58
2023/01/02 01:49:27;;;;;;;12.43;1.80;;;8.30;99.90;;;;;;5023321;28;20259;-58
2023/01/02 01:52:02;;;;;;;16.97;2.40;;;8.30;99.90;;;;;;5030810;28;20182;-57
2023/01/02 01:54:47;;;;;;;13.67;2.33;;;8.40;99.90;;;;;;5032161;28;20203;-57
2023/01/02 01:57:21;;;;;;;17.90;1.50;;;8.40;99.90;;;;;;5015609;28;20186;-58
2023/01/02 01:59:48;;;;;;;13.00;1.70;;;8.50;99.90;;;;;;5028108;28;20181;-58
2023/01/02 02:02:15;;;;;;;11.03;1.60;;;8.50;99.90;;;;;;5032153;28;20233;-58
2023/01/02 02:04:42;;;;;;;11.80;1.67;;;8.60;99.90;;;;;;5025376;28;20229;-57
2023/01/02 02:07:08;;;;;;;19.07;2.20;;;8.60;99.90;;;;;;5030247;28;20586;-58
2023/01/02 02:09:44;;;;;;;14.07;1.43;;;8.60;99.90;;;;;;5030131;28;20181;-58
2023/01/02 02:12:11;;;;;;;13.87;1.47;;;8.70;99.90;;;;;;5015765;28;20186;-58
2023/01/02 02:14:36;;;;;;;14.17;2.43;;;8.70;99.90;;;;;;5027061;28;20205;-58
2023/01/02 02:17:36;;;;;;;12.20;1.70;;;8.70;99.90;;;;;;5031937;28;20228;-55
2023/01/02 02:20:02;;;;;;;9.13;1.60;;;8.70;99.90;;;;;;5016153;28;20178;-58
2023/01/02 02:22:33;;;;;;;15.07;2.07;;;8.70;99.90;;;;;;5031676;28;20664;-58
2023/01/02 02:25:39;;;;;;;14.03;1.67;;;8.80;99.90;;;;;;5031463;28;20205;-58
2023/01/02 02:28:25;;;;;;;12.37;1.87;;;8.80;99.90;;;;;;4994731;28;20225;-58
2023/01/02 02:31:14;;;;;;;9.17;1.30;;;8.90;99.90;;;;;;5027054;28;20664;-58
2023/01/02 02:34:13;;;;;;;12.00;1.73;;;8.90;99.90;;;;;;5014041;28;20209;-58
2023/01/02 02:36:47;;;;;;;10.33;1.37;;;8.90;99.90;;;;;;5007859;28;20209;-58
2023/01/02 02:39:21;;;;;;;10.70;1.50;;;9.00;99.90;;;;;;5031355;28;20185;-58
2023/01/02 02:42:01;;;;;;;15.30;1.50;;;9.10;99.90;;;;;;5031507;28;20649;-58
2023/01/02 02:44:30;;;;;;;14.43;1.43;;;9.00;99.90;;;;;;5015219;28;20190;-58
2023/01/02 02:47:06;;;;;;;13.20;1.67;;;9.10;99.90;;;;;;5026394;28;20240;-58
2023/01/02 02:50:05;;;;;;;6.27;0.90;;;9.10;99.90;;;;;;5023001;28;20684;-58
2023/01/02 02:52:33;;;;;;;9.87;1.20;;;9.10;99.90;;;;;;5027714;28;20591;-58
2023/01/02 02:55:06;;;;;;;11.63;1.20;;;9.20;99.90;;;;;;5031119;28;20178;-58
2023/01/02 02:57:33;;;;;;;9.90;1.77;;;9.20;99.90;;;;;;5030443;28;20184;-58
2023/01/02 02:59:59;;;;;;;9.70;1.53;;;9.30;99.90;;;;;;5030920;28;20296;-57
2023/01/02 03:02:25;;;;;;;10.87;1.27;;;9.30;99.90;;;;;;5022206;28;20202;-57
2023/01/02 03:04:58;;;;;;;6.47;1.20;;;9.30;99.90;;;;;;5031049;28;20631;-57
2023/01/02 03:07:24;;;;;;;6.13;1.40;;;;;;;;;;5031037;28;20205;-58
2023/01/02 03:10:12;;;;;;;8.27;1.20;;;9.20;99.90;;;;;;5031141;28;20178;-58
2023/01/02 03:12:49;;;;;;;9.97;1.03;;;9.20;99.90;;;;;;5031104;28;20637;-58
2023/01/02 03:15:36;;;;;;;9.70;1.40;;;9.10;99.90;;;;;;5030877;28;20174;-58
2023/01/02 03:18:21;;;;;;;9.27;1.47;;;9.10;99.90;;;;;;5031179;28;20174;-58
2023/01/02 03:21:11;;;;;;;5.77;1.40;;;9.10;99.90;;;;;;5030986;28;20178;-58
2023/01/02 03:23:47;;;;;;;12.47;1.23;;;9.10;99.90;;;;;;5025828;28;20192;-58
2023/01/02 03:26:20;;;;;;;11.70;1.43;;;9.10;99.90;;;;;;5030899;28;20197;-58
2023/01/02 03:28:51;;;;;;;7.00;1.00;;;9.10;99.90;;;;;;5030911;28;20284;-58
2023/01/02 03:31:20;;;;;;;10.73;1.23;;;9.10;99.90;;;;;;5030594;28;20239;-58
2023/01/02 03:33:53;;;;;;;9.93;1.10;;;9.10;99.90;;;;;;5030114;28;20191;-61
2023/01/02 03:36:23;;;;;;;13.70;1.43;;;9.00;99.90;;;;;;5029922;28;20186;-58
2023/01/02 03:39:00;;;;;;;7.17;1.00;;;8.90;99.90;;;;;;5030426;28;20176;-58
2023/01/02 03:41:34;;;;;;;12.00;1.20;;;9.00;99.90;;;;;;5011189;28;20329;-58
2023/01/02 03:44:02;;;;;;;14.80;1.40;;;9.00;99.90;;;;;;5016517;28;20572;-58
2023/01/02 03:46:40;;;;;;;9.33;1.60;;;9.00;99.90;;;;;;5020787;28;20267;-58
2023/01/02 03:49:12;;;;;;;8.27;1.03;;;8.90;99.90;;;;;;5017356;28;20185;-58
2023/01/02 03:51:37;;;;;;;10.37;1.20;;;8.90;99.90;;;;;;5030410;28;20192;-58
2023/01/02 03:54:04;;;;;;;11.80;1.80;;;8.90;99.90;;;;;;5030199;28;20586;-56
2023/01/02 03:56:49;;;;;;;13.43;1.67;;;8.90;99.90;;;;;;5024801;28;20208;-60
2023/01/02 03:59:33;;;;;;;6.57;1.27;;;8.80;99.90;;;;;;5030143;28;20178;-56
2023/01/02 04:02:16;;;;;;;12.50;1.13;;;8.80;99.90;;;;;;5029762;28;20208;-57
2023/01/02 04:04:55;;;;;;;6.97;1.30;;;8.80;99.90;;;;;;5029870;28;20295;-57
2023/01/02 04:07:55;;;;;;;11.30;1.47;;;8.80;99.90;;;;;;5034072;28;20745;-57
2023/01/02 04:10:22;;;;;;;11.27;1.63;;;8.80;99.90;;;;;;4998871;28;20681;-57
2023/01/02 04:12:52;;;;;;;11.77;1.30;;;8.80;99.90;;;;;;5032365;28;20178;-57
2023/01/02 04:15:23;;;;;;;10.23;1.50;;;8.70;99.90;;;;;;5018246;28;20190;-57
2023/01/02 04:17:58;;;;;;;9.93;1.50;;;8.70;99.90;;;;;;5021626;28;20667;-56
2023/01/02 04:20:33;;;;;;;7.73;1.70;;;8.80;99.90;;;;;;5033840;28;20227;-56
2023/01/02 04:23:14;;;;;;;13.83;1.43;;;8.70;99.90;;;;;;5034109;28;20182;-56
2023/01/02 04:25:46;;;;;;;11.37;1.63;;;8.70;99.90;;;;;;5014514;28;20197;-57
2023/01/02 04:28:18;;;;;;;8.67;1.80;;;8.70;99.90;;;;;;5023039;28;20231;-56
2023/01/02 04:30:49;;;;;;;9.90;1.43;;;8.60;99.90;;;;;;5033248;28;20178;-57
2023/01/02 04:33:16;;;;;;;12.53;2.00;;;8.60;99.90;;;;;;5031665;28;20656;-57
2023/01/02 04:35:42;;;;;;;9.20;1.60;;;8.50;99.90;;;;;;5014206;28;20641;-57
2023/01/02 04:38:09;;;;;;;11.67;1.90;;;8.50;99.90;;;;;;5033087;28;20208;-56
2023/01/02 04:40:36;;;;;;;15.17;1.97;;;8.40;99.90;;;;;;5032273;28;20169;-56
2023/01/02 04:43:11;;;;;;;17.70;1.83;;;8.30;99.90;;;;;;5018157;28;20181;-57
2023/01/02 04:45:36;;;;;;;13.30;2.30;;;8.30;99.90;;;;;;5033661;28;20220;-56
2023/01/02 04:48:02;;;;;;;12.30;1.90;;;8.20;99.90;;;;;;5033554;28;20253;-56
2023/01/02 04:50:28;;;;;;;17.23;2.47;;;8.20;99.90;;;;;;5029679;28;20179;-57
2023/01/02 04:52:53;;;;;;;8.30;2.50;;;6.70;99.90;;;;;;5023670;28;20213;-57
2023/01/02 04:55:19;;;;;;;16.80;3.10;;;8.00;99.90;;;;;;5032899;28;20231;-57
2023/01/02 04:57:44;;;;;;;19.40;4.03;;;8.00;99.90;;;;;;5030906;28;20592;-56
2023/01/02 05:00:10;;;;;;;23.40;4.50;;;7.90;99.90;;;;;;5033117;28;20182;-57
2023/01/02 05:02:38;;;;;;;24.63;4.17;;;7.90;99.90;;;;;;5032754;28;20644;-57
2023/01/02 05:05:05;;;;;;;17.60;4.73;;;7.80;99.90;;;;;;5033166;28;20218;-57
2023/01/02 05:07:35;;;;;;;15.47;4.70;;;7.80;99.90;;;;;;5033287;28;20810;-57
2023/01/02 05:10:01;;;;;;;21.77;4.40;;;7.70;99.90;;;;;;5033238;28;20637;-57
2023/01/02 05:12:26;;;;;;;16.73;4.73;;;7.70;99.90;;;;;;5033403;28;20185;-57
2023/01/02 05:14:52;;;;;;;16.87;3.80;;;7.60;99.90;;;;;;5032798;28;20178;-57
2023/01/02 05:17:18;;;;;;;25.50;3.90;;;7.50;99.90;;;;;;5033269;28;20684;-57
2023/01/02 05:19:43;;;;;;;13.57;3.50;;;7.50;99.90;;;;;;5033170;28;20170;-57
2023/01/02 05:24:55;;;;;;;9.43;2.60;;;7.40;99.90;;;;;;5033397;28;20185;-57
2023/01/02 05:27:20;;;;;;;9.30;1.80;;;7.40;99.90;;;;;;5032953;28;20205;-57
2023/01/02 05:29:46;;;;;;;8.97;2.17;;;7.40;99.90;;;;;;5033138;28;20174;-57
2023/01/02 05:32:12;;;;;;;15.40;2.67;;;7.30;99.90;;;;;;5032425;28;20890;-57
2023/01/02 05:34:37;;;;;;;12.93;2.00;;;7.30;99.90;;;;;;5032683;28;20170;-57
2023/01/02 05:37:03;;;;;;;10.17;1.80;;;7.20;99.90;;;;;;5032921;28;20177;-57
2023/01/02 05:39:28;;;;;;;13.07;2.73;;;7.20;99.90;;;;;;5032324;28;20265;-57
2023/01/02 05:41:54;;;;;;;8.40;2.20;;;7.20;99.90;;;;;;5032543;28;20213;-57
2023/01/02 05:44:19;;;;;;;15.47;2.30;;;7.10;99.90;;;;;;5032615;28;20178;-57
2023/01/02 05:46:45;;;;;;;12.57;1.83;;;7.10;99.90;;;;;;5024767;28;20711;-57
2023/01/02 05:49:11;;;;;;;7.27;1.83;;;7.00;99.90;;;;;;5032618;28;20191;-57
2023/01/02 05:51:37;;;;;;;5.50;1.60;;;7.00;99.90;;;;;;5031254;28;20201;-57
2023/01/02 05:54:03;;;;;;;14.70;1.77;;;7.00;99.90;;;;;;5031874;28;20636;-57
2023/01/02 05:56:29;;;;;;;10.50;1.67;;;7.00;99.90;;;;;;5032459;28;20189;-58
2023/01/02 05:58:55;;;;;;;9.27;1.30;;;6.90;99.90;;;;;;5032105;28;20787;-58
2023/01/02 06:01:26;;;;;;;9.47;1.77;;;6.80;99.90;;;;;;5032234;28;20189;-58
2023/01/02 06:03:57;;;;;;;12.00;1.60;;;6.90;99.90;;;;;;5031545;28;20245;-58
2023/01/02 06:06:25;;;;;;;10.20;1.70;;;6.80;99.90;;;;;;5027212;28;20744;-58
2023/01/02 06:08:51;;;;;;;7.27;1.70;;;6.80;99.90;;;;;;5016833;28;20194;-58
2023/01/02 06:11:16;;;;;;;11.73;1.80;;;6.80;99.90;;;;;;5028625;28;20186;-58
2023/01/02 06:13:42;;;;;;;8.80;1.73;;;6.70;99.90;;;;;;5031858;28;20894;-58
2023/01/02 06:16:09;;;;;;;6.43;1.87;;;6.70;99.90;;;;;;5031379;28;20192;-57
2023/01/02 06:18:36;;;;;;;6.67;1.80;;;6.70;99.90;;;;;;5030462;28;20232;-57
2023/01/02 06:21:05;;;;;;;7.17;1.70;;;6.60;99.90;;;;;;5031949;28;20174;-57
2023/01/02 06:23:31;;;;;;;6.80;1.63;;;6.60;99.90;;;;;;5031891;28;20178;-57
2023/01/02 06:26:05;;;;;;;9.37;1.80;;;6.40;99.90;;;;;;5030864;28;20190;-57
2023/01/02 06:28:32;;;;;;;8.53;1.40;;;6.50;99.90;;;;;;5031261;28;20189;-58
2023/01/02 06:31:09;;;;;;;8.00;1.70;;;6.40;99.90;;;;;;5031802;28;20188;-58
2023/01/02 06:33:35;;;;;;;9.93;2.03;;;6.30;99.90;;;;;;5031295;28;20181;-58
2023/01/02 06:36:17;;;;;;;12.17;1.70;;;6.30;99.90;;;;;;5031097;28;20197;-58
2023/01/02 06:38:44;;;;;;;9.87;1.97;;;6.30;99.90;;;;;;5031228;28;20189;-58
2023/01/02 06:41:10;;;;;;;10.33;1.93;;;6.20;99.90;;;;;;5028825;28;20326;-58
2023/01/02 06:43:41;;;;;;;3.70;1.47;;;6.20;99.90;;;;;;5016022;28;20717;-58
2023/01/02 06:46:07;;;;;;;7.23;2.20;;;6.20;99.90;;;;;;5031463;28;20181;-58
2023/01/02 06:48:33;;;;;;;9.33;2.00;;;6.20;99.90;;;;;;5031192;28;20672;-58
2023/01/02 06:50:59;;;;;;;8.77;1.80;;;6.20;99.90;;;;;;5031211;28;20257;-58
2023/01/02 06:53:25;;;;;;;11.27;2.30;;;6.20;99.90;;;;;;5031083;28;20198;-57
2023/01/02 06:55:56;;;;;;;5.87;1.83;;;6.10;99.90;;;;;;5031386;28;20284;-57
2023/01/02 06:58:23;;;;;;;9.50;2.40;;;6.10;99.90;;;;;;5014985;28;20193;-57
2023/01/02 07:00:49;;;;;;;15.70;2.30;;;6.00;99.90;;;;;;5031255;28;20185;-56
2023/01/02 07:03:16;;;;;;;17.27;2.10;;;6.00;99.90;;;;;;5030682;28;20635;-55
2023/01/02 07:05:42;;;;;;;8.10;2.17;;;6.00;99.90;;;;;;5029868;28;20753;-55
2023/01/02 07:08:08;;;;;;;8.93;2.10;;;5.90;99.90;;;;;;5030787;28;20696;-55
2023/01/02 07:10:34;;;;;;;11.10;2.37;;;6.00;99.90;;;;;;5030997;28;20688;-55
2023/01/02 07:12:59;;;;;;;9.93;2.27;;;5.90;99.90;;;;;;5034407;28;20265;-55
2023/01/02 07:15:25;;;;;;;9.97;2.03;;;5.80;99.90;;;;;;5029604;28;20253;-55
2023/01/02 07:17:51;;;;;;;10.07;2.10;;;5.80;99.90;;;;;;5016863;28;20189;-55
2023/01/02 07:20:17;;;;;;;11.23;2.37;;;5.80;99.90;;;;;;5012057;28;20228;-55
2023/01/02 07:22:49;;;;;;;6.37;2.40;;;5.80;99.90;;;;;;5030905;28;20256;-55
2023/01/02 07:25:15;;;;;;;8.77;2.43;;;5.80;99.90;;;;;;5030965;28;20174;-56
2023/01/02 07:27:40;;;;;;;9.53;2.50;;;5.80;99.90;;;;;;5030640;28;20260;-56
2023/01/02 07:30:06;;;;;;;6.07;2.70;;;5.80;99.90;;;;;;5029096;28;20224;-56
2023/01/02 07:32:32;;;;;;;9.80;3.07;;;5.90;99.90;;;;;;5030752;28;20648;-56
2023/01/02 07:34:57;;;;;;;10.93;3.00;;;5.90;99.90;;;;;;5030871;28;20185;-57
2023/01/02 07:37:23;;;;;;;9.47;2.73;;;5.60;99.90;;;;;;5021356;28;20198;-56
2023/01/02 07:39:49;;;;;;;10.50;3.00;;;5.80;99.90;;;;;;5030862;28;20165;-56
2023/01/02 07:42:14;;;;;;;10.07;2.80;;;5.50;99.90;;;;;;5030796;28;20169;-56
2023/01/02 07:44:40;;;;;;;14.83;3.40;;;5.70;99.90;;;;;;5030276;28;20284;-57
2023/01/02 07:47:05;;;;;;;7.90;2.83;;;5.60;99.90;;;;;;5030650;28;20371;-58
2023/01/02 07:49:31;;;;;;;13.37;3.57;;;5.50;99.90;;;;;;5030604;28;20251;-57
2023/01/02 07:51:56;;;;;;;11.87;4.20;;;5.60;99.90;;;;;;5030383;28;20170;-57
2023/01/02 07:54:22;;;;;;;13.80;3.50;;;5.70;99.90;;;;;;5030572;28;20170;-60
2023/01/02 07:56:48;;;;;;;8.73;3.67;;;5.60;99.90;;;;;;5030679;28;20581;-57
2023/01/02 07:59:13;;;;;;;9.90;3.63;;;5.70;99.90;;;;;;5030403;28;20779;-57
2023/01/02 08:01:39;;;;;;;9.27;3.50;;;5.70;99.90;;;;;;5030324;28;20216;-57
2023/01/02 08:04:04;;;;;;;12.73;3.80;;;5.80;99.90;;;;;;5016605;28;20693;-58
2023/01/02 08:06:30;;;;;;;10.50;4.23;;;5.60;99.90;;;;;;5010701;28;20253;-57
2023/01/02 08:08:56;;;;;;;13.83;3.70;;;5.50;99.90;;;;;;5010782;28;20175;-57
2023/01/02 08:11:21;;;;;;;10.83;4.10;;;5.60;99.90;;;;;;5010821;28;20342;-57
2023/01/02 08:13:48;;;;;;;15.90;4.53;;;5.60;99.90;;;;;;5010790;28;20183;-57
2023/01/02 08:16:19;;;;;;;10.10;4.10;;;5.60;99.90;;;;;;5010749;28;20615;-57
2023/01/02 08:18:46;;;;;;;13.00;4.23;;;5.60;99.90;;;;;;5011025;28;20518;-57
2023/01/02 08:21:12;;;;;;;11.20;3.50;;;5.70;99.90;;;;;;5010969;28;20179;-57
2023/01/02 08:23:38;;;;;;;9.43;3.37;;;5.60;99.90;;;;;;5018208;28;20181;-57
2023/01/02 08:26:06;;;;;;;9.10;2.97;;;5.70;99.90;;;;;;5029881;28;20174;-57
2023/01/02 08:28:33;;;;;;;17.53;3.33;;;5.70;99.90;;;;;;5029829;28;20200;-57
2023/01/02 08:30:59;;;;;;;10.03;3.13;;;5.80;99.90;;;;;;5029169;28;20580;-57
2023/01/02 08:33:26;;;;;;;8.10;2.93;;;5.90;99.90;;;;;;5029221;28;20181;-57
2023/01/02 08:35:51;;;;;;;11.97;3.30;;;5.90;99.90;;;;;;5023815;28;20205;-57
2023/01/02 08:38:17;;;;;;;10.17;3.33;;;5.80;99.90;;;;;;5029833;28;20545;-58
2023/01/02 08:40:43;;;;;;;9.17;3.20;;;5.90;99.90;;;;;;5030179;28;20243;-60
2023/01/02 08:43:09;;;;;;;11.47;3.57;;;5.90;99.90;;;;;;5030204;28;20189;-57
2023/01/02 08:45:35;;;;;;;7.73;3.43;;;6.00;99.90;;;;;;5030130;28;20178;-58
2023/01/02 08:48:01;;;;;;;8.93;3.40;;;5.90;99.90;;;;;;5030098;28;20301;-58
2023/01/02 08:50:26;;;;;;;10.33;4.30;;;5.90;99.90;;;;;;5033424;28;20209;-57
2023/01/02 08:52:52;;;;;;;11.47;4.43;;;5.90;99.90;;;;;;5033690;28;20182;-58
2023/01/02 08:55:17;;;;;;;14.53;4.27;;;6.00;99.90;;;;;;5033544;28;20659;-57
2023/01/02 08:57:43;;;;;;;10.40;4.40;;;6.00;99.90;;;;;;5033605;28;20182;-57
2023/01/02 09:00:09;;;;;;;14.47;5.63;;;6.10;99.90;;;;;;5033383;28;20587;-58
2023/01/02 09:02:35;;;;;;;7.50;3.70;;;6.20;99.90;;;;;;5033340;28;20240;-58
2023/01/02 09:05:01;;;;;;;8.53;5.17;;;6.30;99.90;;;;;;5028386;28;20223;-57
2023/01/02 09:07:26;;;;;;;11.80;5.30;;;6.50;99.90;;;;;;5026688;28;20206;-57
2023/01/02 09:09:52;;;;;;;10.97;5.83;;;6.80;99.90;;;;;;5033010;28;20182;-57
2023/01/02 09:12:17;;;;;;;11.70;4.87;;;6.80;99.90;;;;;;5032208;28;20178;-58
2023/01/02 09:14:43;;;;;;;12.13;4.30;;;6.70;99.90;;;;;;5033317;28;20243;-58
2023/01/02 09:17:09;;;;;;;7.87;3.73;;;6.70;99.90;;;;;;5033151;28;20682;-59
2023/01/02 09:19:34;;;;;;;6.03;3.57;;;6.70;99.90;;;;;;5033074;28;20185;-58
2023/01/02 09:22:00;;;;;;;8.87;3.77;;;6.70;99.90;;;;;;5032778;28;20204;-58
2023/01/02 09:24:27;;;;;;;7.47;2.93;;;6.60;99.90;;;;;;5032801;28;20197;-56
2023/01/02 09:26:52;;;;;;;6.27;3.00;;;6.60;99.90;;;;;;5032823;28;20225;-58
2023/01/02 09:29:18;;;;;;;7.63;2.53;;;6.50;99.90;;;;;;5025493;28;20186;-58
2023/01/02 09:31:44;;;;;;;8.10;2.80;;;6.50;99.90;;;;;;5033456;28;20186;-57
2023/01/02 09:34:10;;;;;;;8.40;2.63;;;6.50;99.90;;;;;;5032641;28;20235;-57
2023/01/02 09:36:36;;;;;;;5.47;2.53;;;6.60;99.90;;;;;;5032906;28;20189;-58
2023/01/02 09:39:03;;;;;;;3.57;2.43;;;6.60;99.90;;;;;;5033207;28;20179;-57
2023/01/02 09:41:34;;;;;;;5.47;2.53;;;6.90;99.90;;;;;;5032602;28;20170;-57
2023/01/02 09:44:44;;;;;;;3.23;2.13;;;6.90;99.90;;;;;;5016448;28;20190;-57
2023/01/02 09:47:10;;;;;;;4.13;2.30;;;;;;;;;;4985673;28;20245;-57
2023/01/02 09:49:43;;;;;;;15.93;2.83;;;7.00;99.90;;;;;;5033057;28;20182;-57
2023/01/02 09:52:16;;;;;;;5.77;2.87;;;7.00;99.90;;;;;;5033194;28;20257;-57
2023/01/02 09:54:42;;;;;;;8.90;2.50;;;7.00;99.90;;;;;;5032375;28;20170;-57
2023/01/02 09:57:10;;;;;;;6.37;2.47;;;7.00;99.90;;;;;;5032300;28;20273;-58
2023/01/02 09:59:52;;;;;;;5.23;2.10;;;7.20;99.90;;;;;;5032434;28;20181;-56
2023/01/02 10:02:43;;;;;;;4.23;2.37;;;7.20;99.90;;;;;;5031677;28;20178;-56
2023/01/02 10:05:26;;;;;;;8.40;3.10;;;7.20;99.90;;;;;;5031871;28;20214;-57
2023/01/02 10:08:30;;;;;;;7.03;3.90;;;7.30;99.90;;;;;;5032149;28;20650;-57
2023/01/02 10:11:40;;;;;;;8.30;3.73;;;7.30;99.90;;;;;;5010700;28;20324;-56
2023/01/02 10:14:23;;;;;;;11.97;3.13;;;7.40;99.90;;;;;;5032186;28;20182;-55
2023/01/02 10:16:53;;;;;;;4.97;3.07;;;7.50;99.90;;;;;;5032101;28;20174;-56
2023/01/02 10:19:43;;;;;;;4.63;2.70;;;7.40;99.90;;;;;;5031974;28;20205;-61
2023/01/02 10:22:14;;;;;;;9.70;3.27;;;7.60;99.90;;;;;;5028953;28;20265;-58
2023/01/02 10:24:58;;;;;;;8.20;3.67;;;7.50;99.90;;;;;;5027695;28;20194;-58
2023/01/02 10:27:31;;;;;;;9.33;3.43;;;7.60;99.90;;;;;;5031870;28;20279;-58
2023/01/02 10:30:25;;;;;;;5.43;3.53;;;7.90;99.90;;;;;;5031057;28;20182;-58
2023/01/02 10:33:08;;;;;;;6.40;3.00;;;8.20;99.90;;;;;;5030200;28;20209;-58
2023/01/02 10:35:36;;;;;;;5.57;2.80;;;8.80;99.90;;;;;;5031772;28;20169;-58
2023/01/02 10:38:02;;;;;;;4.50;2.77;;;8.80;99.90;;;;;;5031768;28;20174;-58
2023/01/02 10:40:30;;;;;;;8.23;3.03;;;8.80;99.90;;;;;;5031610;28;20662;-58
2023/01/02 10:42:58;;;;;;;6.97;2.37;;;9.20;99.90;;;;;;5031792;28;20174;-58
2023/01/02 10:45:23;;;;;;;5.10;2.73;;;9.90;99.90;;;;;;5031579;28;20162;-58
2023/01/02 10:47:49;;;;;;;9.93;2.77;;;11.00;99.90;;;;;;5031577;28;20783;-58
2023/01/02 10:50:25;;;;;;;5.17;2.77;;;11.30;99.90;;;;;;5029589;28;20662;-56
2023/01/02 10:53:03;;;;;;;3.77;1.73;;;11.00;99.90;;;;;;5031851;28;20231;-59
2023/01/02 10:55:43;;;;;;;2.37;1.03;;;10.80;99.90;;;;;;5031260;28;20633;-58
2023/01/02 10:58:29;;;;;;;2.27;1.10;;;11.60;99.90;;;;;;5031642;28;20245;-58
2023/01/02 11:01:07;;;;;;;3.47;1.07;;;12.30;99.90;;;;;;5031252;28;20174;-58
2023/01/02 11:03:33;;;;;;;2.93;1.20;;;12.50;99.90;;;;;;5029383;28;20205;-58
2023/01/02 11:05:59;;;;;;;5.00;1.10;;;11.70;99.90;;;;;;5029348;28;20178;-58
2023/01/02 11:08:37;;;;;;;5.23;1.43;;;11.20;99.90;;;;;;5028277;28;20205;-58
2023/01/02 11:11:19;;;;;;;3.00;1.23;;;11.10;99.90;;;;;;5030606;28;20212;-57
2023/01/02 11:13:58;;;;;;;5.90;1.60;;;11.30;99.90;;;;;;5030931;28;20178;-57
2023/01/02 11:16:25;;;;;;;4.67;1.60;;;12.70;99.90;;;;;;5031081;28;20177;-57
2023/01/02 11:18:56;;;;;;;3.37;1.20;;;13.90;99.90;;;;;;5021523;28;20205;-57
2023/01/02 11:21:34;;;;;;;5.20;1.30;;;14.60;99.90;;;;;;5029450;28;20178;-57
2023/01/02 11:24:10;;;;;;;1.93;1.00;;;15.60;99.90;;;;;;5030012;28;20613;-57
2023/01/02 11:26:39;;;;;;;1.97;1.10;;;15.30;99.90;;;;;;5018988;28;20209;-57
2023/01/02 11:29:26;;;;;;;5.70;1.02;;;15.40;99.90;;;;;;5012320;28;20162;-58
2023/01/02 11:31:57;;;;;;;2.67;0.70;;;15.70;99.90;;;;;;5016488;28;20186;-56
2023/01/02 11:34:33;;;;;;;6.75;0.82;;;15.10;99.90;;;;;;5030731;28;20170;-57
2023/01/02 11:37:13;;;;;;;3.78;1.27;;;14.70;99.90;;;;;;5030784;28;20260;-57
2023/01/02 11:39:40;;;;;;;3.88;0.82;;;14.60;99.90;;;;;;5030941;28;20173;-57
2023/01/02 11:45:11;;;;;;;0.90;0.57;;;15.40;99.90;;;;;;5030202;28;20246;-57
2023/01/02 11:47:41;;;;;;;4.72;1.10;;;16.10;99.90;;;;;;5030714;28;20225;-57
2023/01/02 11:50:09;;;;;;;3.60;1.00;;;16.70;99.90;;;;;;5030481;28;20166;-57
2023/01/02 11:53:15;;;;;;;2.35;1.15;;;17.90;99.90;;;;;;5030436;28;20169;-61
2023/01/02 11:56:36;;;;;;;2.58;0.90;;;19.60;99.90;;;;;;5030168;28;20617;-57
2023/01/02 11:59:13;;;;;;;4.50;1.20;;;21.00;99.90;;;;;;4988586;28;20214;-56
2023/01/02 12:02:03;;;;;;;2.40;1.23;;;21.10;99.90;;;;;;5010708;28;20261;-58
2023/01/02 12:04:30;;;;;;;2.45;1.13;;;22.80;99.90;;;;;;5029802;28;20300;-58
2023/01/02 12:07:41;;;;;;;5.25;1.30;;;24.10;99.90;;;;;;5030148;28;20209;-58
2023/01/02 12:10:25;;;;;;;2.15;1.33;;;24.10;99.90;;;;;;5026424;28;20675;-58
2023/01/02 12:12:57;;;;;;;4.47;1.23;;;24.50;99.90;;;;;;5006952;28;20269;-58
2023/01/02 12:15:52;;;;;;;3.33;1.45;;;23.70;99.90;;;;;;5008062;28;20198;-58
2023/01/02 12:18:18;;;;;;;3.17;1.30;;;24.30;99.90;;;;;;5017835;28;20234;-58
2023/01/02 12:21:21;;;;;;;3.70;1.40;;;24.10;99.90;;;;;;5029936;28;20253;-58
2023/01/02 12:24:14;;;;;;;3.97;1.30;;;23.50;99.90;;;;;;5031269;28;20264;-58
2023/01/02 12:26:52;;;;;;;2.47;1.30;;;23.80;99.90;;;;;;5034090;28;20546;-56
2023/01/02 12:29:36;;;;;;;3.75;1.30;;;24.40;97.20;;;;;;5034188;28;20181;-58
2023/01/02 12:32:28;;;;;;;2.78;1.17;;;24.50;96.20;;;;;;5034019;28;20173;-57
2023/01/02 12:35:11;;;;;;;1.95;1.02;;;26.00;94.10;;;;;;5033761;28;20233;-55
2023/01/02 12:37:58;;;;;;;1.92;1.17;;;25.90;93.70;;;;;;5025437;28;20185;-57
2023/01/02 12:40:44;;;;;;;3.10;0.90;;;25.60;92.30;;;;;;5033830;28;20174;-57
2023/01/02 12:43:27;;;;;;;5.03;1.20;;;25.70;83.80;;;;;;5033283;28;20201;-55
2023/01/02 12:46:12;;;;;;;1.58;1.10;;;26.20;75.00;;;;;;5013988;28;20174;-56
2023/01/02 12:48:57;;;;;;;4.28;1.15;;;25.00;57.90;;;;;;5014238;28;20653;-55
2023/01/02 12:51:43;;;;;;;3.95;1.25;;;24.70;55.70;;;;;;5033816;28;20170;-55
2023/01/02 12:54:36;;;;;;;2.63;1.13;;;24.70;49.20;;;;;;5033096;28;20182;-55
2023/01/02 12:57:23;;;;;;;1.75;0.82;;;23.70;41.10;;;;;;5029356;28;20175;-55
2023/01/02 13:00:13;;;;;;;1.38;0.60;;;23.50;35.80;;;;;;5013846;28;20170;-54
2023/01/02 13:03:19;;;;;;;1.02;0.70;;;23.70;32.20;;;;;;5029789;28;20181;-55
2023/01/02 13:05:51;;;;;;;4.85;1.52;;;24.20;30.10;;;;;;5010731;28;20193;-54
2023/01/02 13:08:24;;;;;;;2.45;1.20;;;24.00;25.70;;;;;;5028530;28;20310;-54
2023/01/02 13:10:51;;;;;;;3.60;0.80;;;23.00;20.20;;;;;;5032393;28;20173;-54
2023/01/02 13:13:17;;;;;;;3.22;1.13;;;23.10;21.10;;;;;;5028842;28;20268;-54
2023/01/02 13:15:48;;;;;;;3.50;1.10;;;23.00;17.40;;;;;;5032653;28;20174;-54
2023/01/02 13:18:23;;;;;;;1.65;1.02;;;22.70;16.50;;;;;;5033175;28;20185;-53
2023/01/02 13:21:15;;;;;;;3.20;1.55;;;23.30;19.10;;;;;;5032661;28;20226;-54
2023/01/02 13:23:45;;;;;;;2.13;1.23;;;23.90;18.50;;;;;;5033053;28;20660;-54